sensor_id;sensor_type;location;lat;lon;timestamp;P1;durP1;ratioP1;P2;durP2;ratioP2
36923;SDS011;22841;50.252;18.688;2022-11-04T00:01:42;40.58;;;20.25;;
36923;SDS011;22841;50.252;18.688;2022-11-04T00:04:11;37.72;;;19.88;;
36923;SDS011;22841;50.252;18.688;2022-11-04T00:06:38;35.75;;;18.50;;
36923;SDS011;22841;50.252;18.688;2022-11-04T00:09:09;40.85;;;18.75;;
36923;SDS011;22841;50.252;18.688;2022-11-04T00:11:37;32.57;;;18.17;;
36923;SDS011;22841;50.252;18.688;2022-11-04T00:14:21;43.38;;;19.30;;
36923;SDS011;22841;50.252;18.688;2022-11-04T00:16:48;35.63;;;18.63;;
36923;SDS011;22841;50.252;18.688;2022-11-04T00:19:32;33.22;;;17.90;;
36923;SDS011;22841;50.252;18.688;2022-11-04T00:22:18;34.88;;;17.30;;
36923;SDS011;22841;50.252;18.688;2022-11-04T00:25:03;31.45;;;17.27;;
36923;SDS011;22841;50.252;18.688;2022-11-04T00:27:48;33.03;;;16.17;;
36923;SDS011;22841;50.252;18.688;2022-11-04T00:30:35;27.95;;;14.75;;
36923;SDS011;22841;50.252;18.688;2022-11-04T00:33:01;27.90;;;14.73;;
36923;SDS011;22841;50.252;18.688;2022-11-04T00:35:49;25.95;;;13.88;;
36923;SDS011;22841;50.252;18.688;2022-11-04T00:38:16;28.10;;;14.23;;
36923;SDS011;22841;50.252;18.688;2022-11-04T00:40:43;33.28;;;14.10;;
36923;SDS011;22841;50.252;18.688;2022-11-04T00:43:09;27.55;;;14.07;;
36923;SDS011;22841;50.252;18.688;2022-11-04T00:45:35;26.15;;;13.68;;
36923;SDS011;22841;50.252;18.688;2022-11-04T00:48:01;26.75;;;13.98;;
36923;SDS011;22841;50.252;18.688;2022-11-04T00:50:28;32.35;;;14.20;;
36923;SDS011;22841;50.252;18.688;2022-11-04T00:52:58;24.23;;;12.82;;
36923;SDS011;22841;50.252;18.688;2022-11-04T00:55:24;26.80;;;13.75;;
36923;SDS011;22841;50.252;18.688;2022-11-04T00:57:52;28.98;;;13.13;;
36923;SDS011;22841;50.252;18.688;2022-11-04T01:00:18;25.00;;;13.10;;
36923;SDS011;22841;50.252;18.688;2022-11-04T01:02:44;36.08;;;15.95;;
36923;SDS011;22841;50.252;18.688;2022-11-04T01:05:11;32.60;;;14.38;;
36923;SDS011;22841;50.252;18.688;2022-11-04T01:07:37;32.13;;;15.13;;
36923;SDS011;22841;50.252;18.688;2022-11-04T01:10:04;28.75;;;14.30;;
36923;SDS011;22841;50.252;18.688;2022-11-04T01:12:30;28.98;;;14.25;;
36923;SDS011;22841;50.252;18.688;2022-11-04T01:14:56;31.00;;;15.23;;
36923;SDS011;22841;50.252;18.688;2022-11-04T01:17:23;31.48;;;14.88;;
36923;SDS011;22841;50.252;18.688;2022-11-04T01:19:51;31.08;;;14.73;;
36923;SDS011;22841;50.252;18.688;2022-11-04T01:22:17;33.20;;;15.43;;
36923;SDS011;22841;50.252;18.688;2022-11-04T01:24:43;32.67;;;15.82;;
36923;SDS011;22841;50.252;18.688;2022-11-04T01:27:09;31.15;;;14.52;;
36923;SDS011;22841;50.252;18.688;2022-11-04T01:29:35;36.72;;;15.48;;
36923;SDS011;22841;50.252;18.688;2022-11-04T01:32:01;30.00;;;17.05;;
36923;SDS011;22841;50.252;18.688;2022-11-04T01:34:27;33.58;;;16.50;;
36923;SDS011;22841;50.252;18.688;2022-11-04T01:36:53;35.03;;;16.35;;
36923;SDS011;22841;50.252;18.688;2022-11-04T01:39:19;31.17;;;16.30;;
36923;SDS011;22841;50.252;18.688;2022-11-04T01:41:45;38.17;;;18.05;;
36923;SDS011;22841;50.252;18.688;2022-11-04T01:47:16;34.80;;;17.50;;
36923;SDS011;22841;50.252;18.688;2022-11-04T01:50:31;36.17;;;17.95;;
36923;SDS011;22841;50.252;18.688;2022-11-04T01:55:13;39.40;;;18.88;;
36923;SDS011;22841;50.252;18.688;2022-11-04T01:57:46;38.55;;;20.92;;
36923;SDS011;22841;50.252;18.688;2022-11-04T02:00:14;37.65;;;21.92;;
36923;SDS011;22841;50.252;18.688;2022-11-04T02:02:55;34.42;;;20.60;;
36923;SDS011;22841;50.252;18.688;2022-11-04T02:05:24;38.85;;;21.05;;
36923;SDS011;22841;50.252;18.688;2022-11-04T02:07:54;44.65;;;23.45;;
36923;SDS011;22841;50.252;18.688;2022-11-04T02:10:24;43.80;;;24.50;;
36923;SDS011;22841;50.252;18.688;2022-11-04T02:12:52;61.13;;;27.58;;
36923;SDS011;22841;50.252;18.688;2022-11-04T02:15:22;53.05;;;28.08;;
36923;SDS011;22841;50.252;18.688;2022-11-04T02:23:57;58.33;;;30.58;;
36923;SDS011;22841;50.252;18.688;2022-11-04T02:26:52;50.58;;;25.95;;
36923;SDS011;22841;50.252;18.688;2022-11-04T02:37:34;51.42;;;25.98;;
36923;SDS011;22841;50.252;18.688;2022-11-04T02:48:35;44.92;;;22.92;;
36923;SDS011;22841;50.252;18.688;2022-11-04T02:51:08;41.50;;;22.08;;
36923;SDS011;22841;50.252;18.688;2022-11-04T02:53:46;41.15;;;21.42;;
36923;SDS011;22841;50.252;18.688;2022-11-04T02:56:20;38.30;;;21.85;;
36923;SDS011;22841;50.252;18.688;2022-11-04T02:58:58;37.17;;;21.13;;
36923;SDS011;22841;50.252;18.688;2022-11-04T03:01:34;41.13;;;22.42;;
36923;SDS011;22841;50.252;18.688;2022-11-04T03:04:38;40.40;;;21.38;;
36923;SDS011;22841;50.252;18.688;2022-11-04T03:06:59;38.67;;;23.08;;
36923;SDS011;22841;50.252;18.688;2022-11-04T03:09:27;44.35;;;22.88;;
36923;SDS011;22841;50.252;18.688;2022-11-04T03:11:58;38.97;;;20.00;;
36923;SDS011;22841;50.252;18.688;2022-11-04T03:14:35;43.83;;;21.27;;
36923;SDS011;22841;50.252;18.688;2022-11-04T03:17:06;35.63;;;19.77;;
36923;SDS011;22841;50.252;18.688;2022-11-04T03:22:22;32.78;;;18.83;;
36923;SDS011;22841;50.252;18.688;2022-11-04T03:24:52;33.25;;;18.17;;
36923;SDS011;22841;50.252;18.688;2022-11-04T03:35:16;40.92;;;20.35;;
36923;SDS011;22841;50.252;18.688;2022-11-04T03:37:44;32.53;;;19.17;;
36923;SDS011;22841;50.252;18.688;2022-11-04T03:40:13;37.58;;;18.45;;
36923;SDS011;22841;50.252;18.688;2022-11-04T03:42:42;37.88;;;18.58;;
36923;SDS011;22841;50.252;18.688;2022-11-04T03:45:11;35.95;;;18.23;;
36923;SDS011;22841;50.252;18.688;2022-11-04T03:47:38;30.92;;;17.23;;
36923;SDS011;22841;50.252;18.688;2022-11-04T03:50:06;30.85;;;18.30;;
36923;SDS011;22841;50.252;18.688;2022-11-04T03:52:37;34.25;;;18.98;;
36923;SDS011;22841;50.252;18.688;2022-11-04T03:55:04;38.05;;;19.55;;
36923;SDS011;22841;50.252;18.688;2022-11-04T04:00:04;38.83;;;20.70;;
36923;SDS011;22841;50.252;18.688;2022-11-04T04:05:42;41.47;;;21.63;;
36923;SDS011;22841;50.252;18.688;2022-11-04T04:08:24;40.10;;;22.35;;
36923;SDS011;22841;50.252;18.688;2022-11-04T04:14:06;46.35;;;18.50;;
36923;SDS011;22841;50.252;18.688;2022-11-04T04:16:59;33.10;;;17.77;;
36923;SDS011;22841;50.252;18.688;2022-11-04T04:20:11;40.03;;;20.30;;
36923;SDS011;22841;50.252;18.688;2022-11-04T04:25:59;34.33;;;18.38;;
36923;SDS011;22841;50.252;18.688;2022-11-04T04:28:48;39.97;;;19.58;;
36923;SDS011;22841;50.252;18.688;2022-11-04T04:31:16;36.78;;;19.98;;
36923;SDS011;22841;50.252;18.688;2022-11-04T04:34:04;42.58;;;17.58;;
36923;SDS011;22841;50.252;18.688;2022-11-04T04:36:38;39.40;;;18.38;;
36923;SDS011;22841;50.252;18.688;2022-11-04T04:39:10;34.38;;;18.90;;
36923;SDS011;22841;50.252;18.688;2022-11-04T04:41:57;37.65;;;18.08;;
36923;SDS011;22841;50.252;18.688;2022-11-04T04:44:42;35.47;;;18.20;;
36923;SDS011;22841;50.252;18.688;2022-11-04T04:47:45;37.08;;;18.35;;
36923;SDS011;22841;50.252;18.688;2022-11-04T04:50:15;35.38;;;18.52;;
36923;SDS011;22841;50.252;18.688;2022-11-04T04:52:45;33.20;;;18.55;;
36923;SDS011;22841;50.252;18.688;2022-11-04T04:55:12;38.38;;;19.98;;
36923;SDS011;22841;50.252;18.688;2022-11-04T04:57:39;34.88;;;19.67;;
36923;SDS011;22841;50.252;18.688;2022-11-04T05:00:06;37.53;;;20.50;;
36923;SDS011;22841;50.252;18.688;2022-11-04T05:02:34;44.28;;;21.52;;
36923;SDS011;22841;50.252;18.688;2022-11-04T05:05:00;48.45;;;22.83;;
36923;SDS011;22841;50.252;18.688;2022-11-04T05:07:28;38.35;;;21.58;;
36923;SDS011;22841;50.252;18.688;2022-11-04T05:09:54;40.15;;;20.27;;
36923;SDS011;22841;50.252;18.688;2022-11-04T05:12:20;39.92;;;20.98;;
36923;SDS011;22841;50.252;18.688;2022-11-04T05:14:46;43.95;;;20.95;;
36923;SDS011;22841;50.252;18.688;2022-11-04T05:17:13;42.67;;;23.60;;
36923;SDS011;22841;50.252;18.688;2022-11-04T05:19:41;42.10;;;23.50;;
36923;SDS011;22841;50.252;18.688;2022-11-04T05:22:07;61.80;;;25.38;;
36923;SDS011;22841;50.252;18.688;2022-11-04T05:24:33;54.45;;;26.75;;
36923;SDS011;22841;50.252;18.688;2022-11-04T05:26:59;49.38;;;27.48;;
36923;SDS011;22841;50.252;18.688;2022-11-04T05:29:25;47.35;;;27.48;;
36923;SDS011;22841;50.252;18.688;2022-11-04T05:31:51;47.05;;;26.15;;
36923;SDS011;22841;50.252;18.688;2022-11-04T05:34:17;50.80;;;26.23;;
36923;SDS011;22841;50.252;18.688;2022-11-04T05:36:43;56.22;;;27.20;;
36923;SDS011;22841;50.252;18.688;2022-11-04T05:39:11;46.95;;;25.25;;
36923;SDS011;22841;50.252;18.688;2022-11-04T05:41:37;50.08;;;25.42;;
36923;SDS011;22841;50.252;18.688;2022-11-04T05:44:04;42.50;;;22.92;;
36923;SDS011;22841;50.252;18.688;2022-11-04T05:46:31;66.63;;;24.45;;
36923;SDS011;22841;50.252;18.688;2022-11-04T05:48:57;64.10;;;25.83;;
36923;SDS011;22841;50.252;18.688;2022-11-04T05:51:24;47.15;;;24.77;;
36923;SDS011;22841;50.252;18.688;2022-11-04T05:53:52;48.05;;;24.25;;
36923;SDS011;22841;50.252;18.688;2022-11-04T05:56:18;58.60;;;24.75;;
36923;SDS011;22841;50.252;18.688;2022-11-04T05:58:45;60.30;;;25.75;;
36923;SDS011;22841;50.252;18.688;2022-11-04T06:03:58;106.50;;;26.38;;
36923;SDS011;22841;50.252;18.688;2022-11-04T06:06:26;41.25;;;22.15;;
36923;SDS011;22841;50.252;18.688;2022-11-04T06:08:55;53.65;;;24.23;;
36923;SDS011;22841;50.252;18.688;2022-11-04T06:11:22;66.45;;;24.30;;
36923;SDS011;22841;50.252;18.688;2022-11-04T06:13:49;48.17;;;21.70;;
36923;SDS011;22841;50.252;18.688;2022-11-04T06:16:16;61.38;;;21.88;;
36923;SDS011;22841;50.252;18.688;2022-11-04T06:18:42;117.90;;;23.65;;
36923;SDS011;22841;50.252;18.688;2022-11-04T06:23:41;59.65;;;18.25;;
36923;SDS011;22841;50.252;18.688;2022-11-04T06:26:08;92.32;;;19.45;;
36923;SDS011;22841;50.252;18.688;2022-11-04T06:28:35;90.88;;;18.30;;
36923;SDS011;22841;50.252;18.688;2022-11-04T06:31:05;60.72;;;17.17;;
36923;SDS011;22841;50.252;18.688;2022-11-04T06:33:33;81.55;;;18.02;;
36923;SDS011;22841;50.252;18.688;2022-11-04T06:36:01;53.03;;;16.98;;
36923;SDS011;22841;50.252;18.688;2022-11-04T06:38:29;39.65;;;15.73;;
36923;SDS011;22841;50.252;18.688;2022-11-04T06:40:59;49.13;;;14.95;;
36923;SDS011;22841;50.252;18.688;2022-11-04T06:43:25;41.55;;;16.45;;
36923;SDS011;22841;50.252;18.688;2022-11-04T06:45:52;37.60;;;16.52;;
36923;SDS011;22841;50.252;18.688;2022-11-04T06:48:22;160.27;;;24.30;;
36923;SDS011;22841;50.252;18.688;2022-11-04T06:50:48;165.90;;;25.45;;
36923;SDS011;22841;50.252;18.688;2022-11-04T06:53:14;138.20;;;25.35;;
36923;SDS011;22841;50.252;18.688;2022-11-04T06:55:40;132.05;;;22.17;;
36923;SDS011;22841;50.252;18.688;2022-11-04T06:58:07;169.32;;;23.25;;
36923;SDS011;22841;50.252;18.688;2022-11-04T07:00:33;109.65;;;19.52;;
36923;SDS011;22841;50.252;18.688;2022-11-04T07:02:59;50.08;;;15.93;;
36923;SDS011;22841;50.252;18.688;2022-11-04T07:05:26;44.97;;;15.85;;
36923;SDS011;22841;50.252;18.688;2022-11-04T07:07:52;49.17;;;16.42;;
36923;SDS011;22841;50.252;18.688;2022-11-04T07:10:18;49.95;;;16.50;;
36923;SDS011;22841;50.252;18.688;2022-11-04T07:12:44;28.73;;;14.23;;
36923;SDS011;22841;50.252;18.688;2022-11-04T07:15:10;33.95;;;14.85;;
36923;SDS011;22841;50.252;18.688;2022-11-04T07:17:36;50.17;;;17.58;;
36923;SDS011;22841;50.252;18.688;2022-11-04T07:20:03;228.32;;;27.88;;
36923;SDS011;22841;50.252;18.688;2022-11-04T07:22:30;108.75;;;20.30;;
36923;SDS011;22841;50.252;18.688;2022-11-04T07:24:57;45.78;;;16.38;;
36923;SDS011;22841;50.252;18.688;2022-11-04T07:27:23;43.70;;;16.55;;
36923;SDS011;22841;50.252;18.688;2022-11-04T07:29:49;41.17;;;16.65;;
36923;SDS011;22841;50.252;18.688;2022-11-04T07:32:15;28.77;;;14.18;;
36923;SDS011;22841;50.252;18.688;2022-11-04T07:34:41;47.38;;;15.13;;
36923;SDS011;22841;50.252;18.688;2022-11-04T07:37:07;65.38;;;15.90;;
36923;SDS011;22841;50.252;18.688;2022-11-04T07:39:33;37.75;;;14.77;;
36923;SDS011;22841;50.252;18.688;2022-11-04T07:41:59;27.30;;;13.38;;
36923;SDS011;22841;50.252;18.688;2022-11-04T07:44:25;24.65;;;13.25;;
36923;SDS011;22841;50.252;18.688;2022-11-04T07:46:51;59.78;;;14.18;;
36923;SDS011;22841;50.252;18.688;2022-11-04T07:49:17;98.93;;;16.40;;
36923;SDS011;22841;50.252;18.688;2022-11-04T07:51:43;22.80;;;12.27;;
36923;SDS011;22841;50.252;18.688;2022-11-04T07:54:09;38.55;;;12.05;;
36923;SDS011;22841;50.252;18.688;2022-11-04T07:56:35;21.48;;;12.07;;
36923;SDS011;22841;50.252;18.688;2022-11-04T07:59:04;24.77;;;12.02;;
36923;SDS011;22841;50.252;18.688;2022-11-04T08:01:31;64.32;;;15.40;;
36923;SDS011;22841;50.252;18.688;2022-11-04T08:03:57;28.63;;;13.48;;
36923;SDS011;22841;50.252;18.688;2022-11-04T08:06:24;27.40;;;11.65;;
36923;SDS011;22841;50.252;18.688;2022-11-04T08:08:50;22.35;;;12.63;;
36923;SDS011;22841;50.252;18.688;2022-11-04T08:11:19;29.33;;;12.13;;
36923;SDS011;22841;50.252;18.688;2022-11-04T08:13:47;30.98;;;12.52;;
36923;SDS011;22841;50.252;18.688;2022-11-04T08:16:14;31.08;;;12.90;;
36923;SDS011;22841;50.252;18.688;2022-11-04T08:18:42;26.20;;;12.13;;
36923;SDS011;22841;50.252;18.688;2022-11-04T08:21:09;26.67;;;12.57;;
36923;SDS011;22841;50.252;18.688;2022-11-04T08:23:36;31.35;;;11.52;;
36923;SDS011;22841;50.252;18.688;2022-11-04T08:26:06;26.98;;;12.25;;
36923;SDS011;22841;50.252;18.688;2022-11-04T08:28:34;20.30;;;11.77;;
36923;SDS011;22841;50.252;18.688;2022-11-04T08:31:01;31.83;;;16.02;;
36923;SDS011;22841;50.252;18.688;2022-11-04T08:33:29;45.50;;;19.65;;
36923;SDS011;22841;50.252;18.688;2022-11-04T08:36:00;50.13;;;19.70;;
36923;SDS011;22841;50.252;18.688;2022-11-04T08:38:29;67.78;;;19.13;;
36923;SDS011;22841;50.252;18.688;2022-11-04T08:40:59;44.15;;;18.42;;
36923;SDS011;22841;50.252;18.688;2022-11-04T08:43:27;46.70;;;19.75;;
36923;SDS011;22841;50.252;18.688;2022-11-04T08:45:54;43.42;;;18.52;;
36923;SDS011;22841;50.252;18.688;2022-11-04T08:48:20;44.17;;;19.50;;
36923;SDS011;22841;50.252;18.688;2022-11-04T08:50:53;44.47;;;20.83;;
36923;SDS011;22841;50.252;18.688;2022-11-04T08:53:21;45.53;;;20.42;;
36923;SDS011;22841;50.252;18.688;2022-11-04T08:55:47;41.35;;;19.10;;
36923;SDS011;22841;50.252;18.688;2022-11-04T08:58:13;43.35;;;19.95;;
36923;SDS011;22841;50.252;18.688;2022-11-04T09:00:39;40.25;;;19.35;;
36923;SDS011;22841;50.252;18.688;2022-11-04T09:03:05;32.40;;;18.20;;
36923;SDS011;22841;50.252;18.688;2022-11-04T09:05:32;40.83;;;19.63;;
36923;SDS011;22841;50.252;18.688;2022-11-04T09:08:01;48.50;;;20.45;;
36923;SDS011;22841;50.252;18.688;2022-11-04T09:10:29;34.10;;;17.63;;
36923;SDS011;22841;50.252;18.688;2022-11-04T09:12:55;41.63;;;17.83;;
36923;SDS011;22841;50.252;18.688;2022-11-04T09:15:21;33.10;;;17.05;;
36923;SDS011;22841;50.252;18.688;2022-11-04T09:17:47;35.60;;;18.35;;
36923;SDS011;22841;50.252;18.688;2022-11-04T09:20:13;36.88;;;17.52;;
36923;SDS011;22841;50.252;18.688;2022-11-04T09:22:39;37.25;;;17.92;;
36923;SDS011;22841;50.252;18.688;2022-11-04T09:25:06;37.35;;;18.80;;
36923;SDS011;22841;50.252;18.688;2022-11-04T09:27:33;44.20;;;22.42;;
36923;SDS011;22841;50.252;18.688;2022-11-04T09:30:00;40.03;;;19.67;;
36923;SDS011;22841;50.252;18.688;2022-11-04T09:32:26;46.05;;;21.92;;
36923;SDS011;22841;50.252;18.688;2022-11-04T09:34:52;35.17;;;18.83;;
36923;SDS011;22841;50.252;18.688;2022-11-04T09:37:18;44.28;;;20.17;;
36923;SDS011;22841;50.252;18.688;2022-11-04T09:39:44;36.78;;;20.88;;
36923;SDS011;22841;50.252;18.688;2022-11-04T09:45:07;38.38;;;18.95;;
36923;SDS011;22841;50.252;18.688;2022-11-04T09:47:39;41.80;;;19.20;;
36923;SDS011;22841;50.252;18.688;2022-11-04T09:50:09;43.85;;;17.83;;
36923;SDS011;22841;50.252;18.688;2022-11-04T09:53:03;40.92;;;19.75;;
36923;SDS011;22841;50.252;18.688;2022-11-04T09:55:37;42.50;;;19.73;;
36923;SDS011;22841;50.252;18.688;2022-11-04T09:58:16;38.35;;;18.90;;
36923;SDS011;22841;50.252;18.688;2022-11-04T10:00:44;35.25;;;18.02;;
36923;SDS011;22841;50.252;18.688;2022-11-04T10:05:59;37.13;;;18.00;;
36923;SDS011;22841;50.252;18.688;2022-11-04T10:14:07;26.40;;;13.27;;
36923;SDS011;22841;50.252;18.688;2022-11-04T10:19:51;31.30;;;12.73;;
36923;SDS011;22841;50.252;18.688;2022-11-04T10:27:28;29.65;;;13.75;;
36923;SDS011;22841;50.252;18.688;2022-11-04T10:29:59;31.08;;;13.60;;
36923;SDS011;22841;50.252;18.688;2022-11-04T10:37:37;34.83;;;13.13;;
36923;SDS011;22841;50.252;18.688;2022-11-04T10:42:53;24.33;;;12.48;;
36923;SDS011;22841;50.252;18.688;2022-11-04T10:45:24;29.63;;;12.25;;
36923;SDS011;22841;50.252;18.688;2022-11-04T10:47:59;47.42;;;13.02;;
36923;SDS011;22841;50.252;18.688;2022-11-04T10:50:55;39.60;;;13.90;;
36923;SDS011;22841;50.252;18.688;2022-11-04T10:53:24;42.30;;;12.77;;
36923;SDS011;22841;50.252;18.688;2022-11-04T10:58:25;51.00;;;13.65;;
36923;SDS011;22841;50.252;18.688;2022-11-04T11:00:54;21.67;;;11.45;;
36923;SDS011;22841;50.252;18.688;2022-11-04T11:05:52;22.65;;;12.52;;
36923;SDS011;22841;50.252;18.688;2022-11-04T11:08:39;25.73;;;11.90;;
36923;SDS011;22841;50.252;18.688;2022-11-04T11:11:06;24.08;;;12.52;;
36923;SDS011;22841;50.252;18.688;2022-11-04T11:13:35;23.23;;;12.57;;
36923;SDS011;22841;50.252;18.688;2022-11-04T11:16:05;28.13;;;12.90;;
36923;SDS011;22841;50.252;18.688;2022-11-04T11:18:33;26.80;;;13.40;;
36923;SDS011;22841;50.252;18.688;2022-11-04T11:21:06;26.85;;;12.60;;
36923;SDS011;22841;50.252;18.688;2022-11-04T11:23:46;26.25;;;14.15;;
36923;SDS011;22841;50.252;18.688;2022-11-04T11:26:16;22.88;;;12.88;;
36923;SDS011;22841;50.252;18.688;2022-11-04T11:28:54;102.90;;;18.48;;
36923;SDS011;22841;50.252;18.688;2022-11-04T11:31:22;96.13;;;19.35;;
36923;SDS011;22841;50.252;18.688;2022-11-04T11:33:51;62.50;;;16.13;;
36923;SDS011;22841;50.252;18.688;2022-11-04T11:36:27;30.77;;;13.65;;
36923;SDS011;22841;50.252;18.688;2022-11-04T11:39:15;40.40;;;15.55;;
36923;SDS011;22841;50.252;18.688;2022-11-04T11:42:04;37.17;;;15.27;;
36923;SDS011;22841;50.252;18.688;2022-11-04T11:44:42;30.30;;;14.00;;
36923;SDS011;22841;50.252;18.688;2022-11-04T11:47:21;28.60;;;13.75;;
36923;SDS011;22841;50.252;18.688;2022-11-04T11:52:37;59.45;;;15.35;;
36923;SDS011;22841;50.252;18.688;2022-11-04T11:55:18;28.42;;;13.75;;
36923;SDS011;22841;50.252;18.688;2022-11-04T11:58:03;23.52;;;13.43;;
36923;SDS011;22841;50.252;18.688;2022-11-04T12:00:44;34.80;;;14.55;;
36923;SDS011;22841;50.252;18.688;2022-11-04T12:03:18;26.58;;;14.77;;
36923;SDS011;22841;50.252;18.688;2022-11-04T12:05:58;33.83;;;16.65;;
36923;SDS011;22841;50.252;18.688;2022-11-04T12:11:20;35.03;;;15.05;;
36923;SDS011;22841;50.252;18.688;2022-11-04T12:14:05;37.10;;;14.52;;
36923;SDS011;22841;50.252;18.688;2022-11-04T12:17:21;40.33;;;15.02;;
36923;SDS011;22841;50.252;18.688;2022-11-04T12:27:55;32.95;;;15.52;;
36923;SDS011;22841;50.252;18.688;2022-11-04T12:31:48;53.65;;;18.95;;
36923;SDS011;22841;50.252;18.688;2022-11-04T12:33:50;34.90;;;15.90;;
36923;SDS011;22841;50.252;18.688;2022-11-04T12:39:29;73.47;;;17.38;;
36923;SDS011;22841;50.252;18.688;2022-11-04T12:42:04;107.45;;;20.30;;
36923;SDS011;22841;50.252;18.688;2022-11-04T12:47:49;28.75;;;14.75;;
36923;SDS011;22841;50.252;18.688;2022-11-04T12:50:30;30.10;;;16.13;;
36923;SDS011;22841;50.252;18.688;2022-11-04T12:55:59;32.42;;;16.00;;
36923;SDS011;22841;50.252;18.688;2022-11-04T12:58:47;45.28;;;15.60;;
36923;SDS011;22841;50.252;18.688;2022-11-04T13:01:30;32.63;;;16.58;;
36923;SDS011;22841;50.252;18.688;2022-11-04T13:04:14;31.38;;;16.02;;
36923;SDS011;22841;50.252;18.688;2022-11-04T13:09:42;71.05;;;16.75;;
36923;SDS011;22841;50.252;18.688;2022-11-04T13:12:24;47.60;;;17.90;;
36923;SDS011;22841;50.252;18.688;2022-11-04T13:14:59;46.88;;;21.27;;
36923;SDS011;22841;50.252;18.688;2022-11-04T13:17:38;50.72;;;22.52;;
36923;SDS011;22841;50.252;18.688;2022-11-04T13:22:38;29.50;;;15.55;;
36923;SDS011;22841;50.252;18.688;2022-11-04T13:27:46;93.57;;;18.63;;
36923;SDS011;22841;50.252;18.688;2022-11-04T13:32:52;102.43;;;20.63;;
36923;SDS011;22841;50.252;18.688;2022-11-04T13:38:08;66.45;;;18.50;;
36923;SDS011;22841;50.252;18.688;2022-11-04T13:41:02;37.38;;;18.02;;
36923;SDS011;22841;50.252;18.688;2022-11-04T13:43:34;85.93;;;19.05;;
36923;SDS011;22841;50.252;18.688;2022-11-04T13:48:33;310.48;;;33.33;;
36923;SDS011;22841;50.252;18.688;2022-11-04T13:51:05;164.10;;;24.80;;
36923;SDS011;22841;50.252;18.688;2022-11-04T13:53:44;104.38;;;23.58;;
36923;SDS011;22841;50.252;18.688;2022-11-04T13:56:25;62.33;;;20.63;;
36923;SDS011;22841;50.252;18.688;2022-11-04T13:58:59;61.83;;;19.25;;
36923;SDS011;22841;50.252;18.688;2022-11-04T14:02:32;64.47;;;19.45;;
36923;SDS011;22841;50.252;18.688;2022-11-04T14:04:38;68.50;;;18.15;;
36923;SDS011;22841;50.252;18.688;2022-11-04T14:07:10;69.60;;;19.70;;
36923;SDS011;22841;50.252;18.688;2022-11-04T14:20:07;108.40;;;27.90;;
36923;SDS011;22841;50.252;18.688;2022-11-04T14:22:53;75.25;;;27.98;;
36923;SDS011;22841;50.252;18.688;2022-11-04T14:27:53;88.45;;;28.67;;
36923;SDS011;22841;50.252;18.688;2022-11-04T14:30:33;89.53;;;24.67;;
36923;SDS011;22841;50.252;18.688;2022-11-04T14:33:06;99.20;;;25.40;;
36923;SDS011;22841;50.252;18.688;2022-11-04T14:35:43;76.00;;;23.67;;
36923;SDS011;22841;50.252;18.688;2022-11-04T14:38:23;85.28;;;27.10;;
36923;SDS011;22841;50.252;18.688;2022-11-04T14:43:53;77.95;;;32.97;;
36923;SDS011;22841;50.252;18.688;2022-11-04T14:46:23;70.07;;;31.58;;
36923;SDS011;22841;50.252;18.688;2022-11-04T14:48:53;76.03;;;30.08;;
36923;SDS011;22841;50.252;18.688;2022-11-04T14:51:32;137.90;;;33.50;;
36923;SDS011;22841;50.252;18.688;2022-11-04T14:54:05;117.25;;;34.40;;
36923;SDS011;22841;50.252;18.688;2022-11-04T14:56:44;77.60;;;29.00;;
36923;SDS011;22841;50.252;18.688;2022-11-04T14:59:19;83.25;;;30.65;;
36923;SDS011;22841;50.252;18.688;2022-11-04T15:01:46;62.83;;;29.77;;
36923;SDS011;22841;50.252;18.688;2022-11-04T15:06:52;110.47;;;31.00;;
36923;SDS011;22841;50.252;18.688;2022-11-04T15:09:27;85.80;;;30.02;;
36923;SDS011;22841;50.252;18.688;2022-11-04T15:11:58;66.35;;;28.45;;
36923;SDS011;22841;50.252;18.688;2022-11-04T15:14:53;65.78;;;31.52;;
36923;SDS011;22841;50.252;18.688;2022-11-04T15:17:20;71.55;;;36.67;;
36923;SDS011;22841;50.252;18.688;2022-11-04T15:19:52;85.13;;;44.05;;
36923;SDS011;22841;50.252;18.688;2022-11-04T15:22:20;82.57;;;41.80;;
36923;SDS011;22841;50.252;18.688;2022-11-04T15:24:47;106.43;;;54.50;;
36923;SDS011;22841;50.252;18.688;2022-11-04T15:27:16;118.80;;;57.22;;
36923;SDS011;22841;50.252;18.688;2022-11-04T15:29:57;121.47;;;59.90;;
36923;SDS011;22841;50.252;18.688;2022-11-04T15:32:25;108.38;;;54.65;;
36923;SDS011;22841;50.252;18.688;2022-11-04T15:34:53;86.30;;;46.80;;
36923;SDS011;22841;50.252;18.688;2022-11-04T15:37:20;88.32;;;42.55;;
36923;SDS011;22841;50.252;18.688;2022-11-04T15:39:52;94.93;;;46.45;;
36923;SDS011;22841;50.252;18.688;2022-11-04T15:42:25;94.40;;;45.50;;
36923;SDS011;22841;50.252;18.688;2022-11-04T15:46:13;84.40;;;47.45;;
36923;SDS011;22841;50.252;18.688;2022-11-04T15:51:13;92.00;;;44.38;;
36923;SDS011;22841;50.252;18.688;2022-11-04T15:53:54;90.47;;;46.60;;
36923;SDS011;22841;50.252;18.688;2022-11-04T15:56:49;91.88;;;45.00;;
36923;SDS011;22841;50.252;18.688;2022-11-04T15:59:22;99.90;;;50.23;;
36923;SDS011;22841;50.252;18.688;2022-11-04T16:01:52;99.03;;;49.50;;
36923;SDS011;22841;50.252;18.688;2022-11-04T16:04:20;97.43;;;46.78;;
36923;SDS011;22841;50.252;18.688;2022-11-04T16:07:02;91.18;;;46.08;;
36923;SDS011;22841;50.252;18.688;2022-11-04T16:09:31;89.95;;;47.17;;
36923;SDS011;22841;50.252;18.688;2022-11-04T16:12:15;97.03;;;45.72;;
36923;SDS011;22841;50.252;18.688;2022-11-04T16:14:52;93.60;;;46.25;;
36923;SDS011;22841;50.252;18.688;2022-11-04T16:17:19;94.82;;;47.22;;
36923;SDS011;22841;50.252;18.688;2022-11-04T16:19:48;104.30;;;51.03;;
36923;SDS011;22841;50.252;18.688;2022-11-04T16:22:23;102.40;;;50.85;;
36923;SDS011;22841;50.252;18.688;2022-11-04T16:24:57;104.20;;;54.15;;
36923;SDS011;22841;50.252;18.688;2022-11-04T16:27:26;102.13;;;54.05;;
36923;SDS011;22841;50.252;18.688;2022-11-04T16:30:37;100.22;;;53.13;;
36923;SDS011;22841;50.252;18.688;2022-11-04T16:35:13;101.82;;;51.72;;
36923;SDS011;22841;50.252;18.688;2022-11-04T16:37:44;100.15;;;51.25;;
36923;SDS011;22841;50.252;18.688;2022-11-04T16:40:10;105.22;;;52.55;;
36923;SDS011;22841;50.252;18.688;2022-11-04T16:42:39;98.38;;;48.90;;
36923;SDS011;22841;50.252;18.688;2022-11-04T16:45:06;98.78;;;48.65;;
36923;SDS011;22841;50.252;18.688;2022-11-04T16:47:41;85.13;;;45.45;;
36923;SDS011;22841;50.252;18.688;2022-11-04T16:50:13;86.70;;;44.78;;
36923;SDS011;22841;50.252;18.688;2022-11-04T16:52:40;89.10;;;44.20;;
36923;SDS011;22841;50.252;18.688;2022-11-04T16:55:07;85.30;;;42.05;;
36923;SDS011;22841;50.252;18.688;2022-11-04T16:57:34;82.47;;;40.58;;
36923;SDS011;22841;50.252;18.688;2022-11-04T17:00:00;79.53;;;38.03;;
36923;SDS011;22841;50.252;18.688;2022-11-04T17:02:27;78.07;;;40.15;;
36923;SDS011;22841;50.252;18.688;2022-11-04T17:04:55;79.55;;;43.08;;
36923;SDS011;22841;50.252;18.688;2022-11-04T17:07:22;82.05;;;41.58;;